Terminal Aerodrome Forecast
Issued by NWS

Home | Current Version | Previous Version | Text Only | Print | Product List | Glossary Off
Versions: 1 2 3 4 5 6 7 8 9 10 11 12 13 14

700
FTUS43 KGRB 111120
TAFCWA
TAF
KCWA 111120Z 1112/1212 29006KT P6SM SKC
     FM112200 26006KT P6SM BKN080
     FM120500 28007KT P6SM BKN035
     FM120900 30008G15KT P6SM BKN020=

USA.gov is the U.S. government's official web portal to all federal, state and local government web resources and services.